sensor_id;sensor_type;location;lat;lon;timestamp;temperature;humidity
5834;DHT22;2943;48.012;10.968;2023-05-18T00:01:40;8.40;99.90
5834;DHT22;2943;48.012;10.968;2023-05-18T00:04:07;8.40;99.90
5834;DHT22;2943;48.012;10.968;2023-05-18T00:06:35;8.40;99.90
5834;DHT22;2943;48.012;10.968;2023-05-18T00:09:02;8.40;99.90
5834;DHT22;2943;48.012;10.968;2023-05-18T00:11:30;8.30;99.90
5834;DHT22;2943;48.012;10.968;2023-05-18T00:13:58;8.40;99.90
5834;DHT22;2943;48.012;10.968;2023-05-18T00:16:24;8.30;99.90
5834;DHT22;2943;48.012;10.968;2023-05-18T00:18:51;8.30;99.90
5834;DHT22;2943;48.012;10.968;2023-05-18T00:21:19;8.30;99.90
5834;DHT22;2943;48.012;10.968;2023-05-18T00:23:48;8.20;99.90
5834;DHT22;2943;48.012;10.968;2023-05-18T00:26:16;8.20;99.90
5834;DHT22;2943;48.012;10.968;2023-05-18T00:28:43;8.20;99.90
5834;DHT22;2943;48.012;10.968;2023-05-18T00:31:10;8.10;99.90
5834;DHT22;2943;48.012;10.968;2023-05-18T00:33:37;8.10;99.90
5834;DHT22;2943;48.012;10.968;2023-05-18T00:36:05;8.10;99.90
5834;DHT22;2943;48.012;10.968;2023-05-18T00:38:32;8.00;99.90
5834;DHT22;2943;48.012;10.968;2023-05-18T00:41:01;8.00;99.90
5834;DHT22;2943;48.012;10.968;2023-05-18T00:43:39;8.00;99.90
5834;DHT22;2943;48.012;10.968;2023-05-18T00:46:06;8.00;99.90
5834;DHT22;2943;48.012;10.968;2023-05-18T00:48:33;7.90;99.90
5834;DHT22;2943;48.012;10.968;2023-05-18T00:50:59;7.80;99.90
5834;DHT22;2943;48.012;10.968;2023-05-18T00:53:26;7.80;99.90
5834;DHT22;2943;48.012;10.968;2023-05-18T00:55:53;7.80;99.90
5834;DHT22;2943;48.012;10.968;2023-05-18T00:58:21;7.80;99.90
5834;DHT22;2943;48.012;10.968;2023-05-18T01:00:48;7.70;99.90
5834;DHT22;2943;48.012;10.968;2023-05-18T01:03:15;7.70;99.90
5834;DHT22;2943;48.012;10.968;2023-05-18T01:05:44;7.70;99.90
5834;DHT22;2943;48.012;10.968;2023-05-18T01:08:14;7.60;99.90
5834;DHT22;2943;48.012;10.968;2023-05-18T01:10:42;7.60;99.90
5834;DHT22;2943;48.012;10.968;2023-05-18T01:13:14;7.60;99.90
5834;DHT22;2943;48.012;10.968;2023-05-18T01:15:56;7.50;99.90
5834;DHT22;2943;48.012;10.968;2023-05-18T01:18:32;7.50;99.90
5834;DHT22;2943;48.012;10.968;2023-05-18T01:21:07;7.50;99.90
5834;DHT22;2943;48.012;10.968;2023-05-18T01:23:49;7.40;99.90
5834;DHT22;2943;48.012;10.968;2023-05-18T01:26:26;7.40;99.90
5834;DHT22;2943;48.012;10.968;2023-05-18T01:28:58;7.40;99.90
5834;DHT22;2943;48.012;10.968;2023-05-18T01:31:33;7.40;99.90
5834;DHT22;2943;48.012;10.968;2023-05-18T01:34:00;7.30;99.90
5834;DHT22;2943;48.012;10.968;2023-05-18T01:36:27;7.30;99.90
5834;DHT22;2943;48.012;10.968;2023-05-18T01:38:55;7.20;99.90
5834;DHT22;2943;48.012;10.968;2023-05-18T01:41:28;7.20;99.90
5834;DHT22;2943;48.012;10.968;2023-05-18T01:44:11;7.10;99.90
5834;DHT22;2943;48.012;10.968;2023-05-18T01:46:47;7.00;99.90
5834;DHT22;2943;48.012;10.968;2023-05-18T01:49:29;7.00;99.90
5834;DHT22;2943;48.012;10.968;2023-05-18T01:52:02;7.00;99.90
5834;DHT22;2943;48.012;10.968;2023-05-18T01:54:31;7.00;99.90
5834;DHT22;2943;48.012;10.968;2023-05-18T01:57:00;6.90;99.90
5834;DHT22;2943;48.012;10.968;2023-05-18T01:59:28;7.00;99.90
5834;DHT22;2943;48.012;10.968;2023-05-18T02:01:58;6.90;99.90
5834;DHT22;2943;48.012;10.968;2023-05-18T02:04:26;6.90;99.90
5834;DHT22;2943;48.012;10.968;2023-05-18T02:06:53;6.80;99.90
5834;DHT22;2943;48.012;10.968;2023-05-18T02:09:20;6.80;99.90
5834;DHT22;2943;48.012;10.968;2023-05-18T02:11:46;6.80;99.90
5834;DHT22;2943;48.012;10.968;2023-05-18T02:14:15;6.80;99.90
5834;DHT22;2943;48.012;10.968;2023-05-18T02:16:42;6.80;99.90
5834;DHT22;2943;48.012;10.968;2023-05-18T02:19:12;6.70;99.90
5834;DHT22;2943;48.012;10.968;2023-05-18T02:21:39;6.70;99.90
5834;DHT22;2943;48.012;10.968;2023-05-18T02:24:15;6.70;99.90
5834;DHT22;2943;48.012;10.968;2023-05-18T02:26:43;6.60;99.90
5834;DHT22;2943;48.012;10.968;2023-05-18T02:29:10;6.60;99.90
5834;DHT22;2943;48.012;10.968;2023-05-18T02:31:40;6.50;99.90
5834;DHT22;2943;48.012;10.968;2023-05-18T02:34:07;6.50;99.90
5834;DHT22;2943;48.012;10.968;2023-05-18T02:36:35;6.50;99.90
5834;DHT22;2943;48.012;10.968;2023-05-18T02:39:04;6.40;99.90
5834;DHT22;2943;48.012;10.968;2023-05-18T02:41:32;6.40;99.90
5834;DHT22;2943;48.012;10.968;2023-05-18T02:43:59;6.40;99.90
5834;DHT22;2943;48.012;10.968;2023-05-18T02:46:28;6.40;99.90
5834;DHT22;2943;48.012;10.968;2023-05-18T02:48:56;6.30;99.90
5834;DHT22;2943;48.012;10.968;2023-05-18T02:51:24;6.30;99.90
5834;DHT22;2943;48.012;10.968;2023-05-18T02:53:51;6.20;99.90
5834;DHT22;2943;48.012;10.968;2023-05-18T02:56:18;6.20;99.90
5834;DHT22;2943;48.012;10.968;2023-05-18T02:58:45;6.20;99.90
5834;DHT22;2943;48.012;10.968;2023-05-18T03:01:12;6.10;99.90
5834;DHT22;2943;48.012;10.968;2023-05-18T03:03:39;6.10;99.90
5834;DHT22;2943;48.012;10.968;2023-05-18T03:06:11;6.00;99.90
5834;DHT22;2943;48.012;10.968;2023-05-18T03:08:40;6.00;99.90
5834;DHT22;2943;48.012;10.968;2023-05-18T03:11:07;6.00;99.90
5834;DHT22;2943;48.012;10.968;2023-05-18T03:13:34;5.90;99.90
5834;DHT22;2943;48.012;10.968;2023-05-18T03:16:00;5.90;99.90
5834;DHT22;2943;48.012;10.968;2023-05-18T03:18:27;5.90;99.90
5834;DHT22;2943;48.012;10.968;2023-05-18T03:20:54;5.90;99.90
5834;DHT22;2943;48.012;10.968;2023-05-18T03:23:27;5.80;99.90
5834;DHT22;2943;48.012;10.968;2023-05-18T03:25:54;5.80;99.90
5834;DHT22;2943;48.012;10.968;2023-05-18T03:28:21;5.80;99.90
5834;DHT22;2943;48.012;10.968;2023-05-18T03:30:48;5.70;99.90
5834;DHT22;2943;48.012;10.968;2023-05-18T03:33:15;5.70;99.90
5834;DHT22;2943;48.012;10.968;2023-05-18T03:35:42;5.70;99.90
5834;DHT22;2943;48.012;10.968;2023-05-18T03:38:09;5.70;99.90
5834;DHT22;2943;48.012;10.968;2023-05-18T03:40:37;5.70;99.90
5834;DHT22;2943;48.012;10.968;2023-05-18T03:43:04;5.60;99.90
5834;DHT22;2943;48.012;10.968;2023-05-18T03:45:31;5.60;99.90
5834;DHT22;2943;48.012;10.968;2023-05-18T03:47:58;5.50;99.90
5834;DHT22;2943;48.012;10.968;2023-05-18T03:50:25;5.50;99.90
5834;DHT22;2943;48.012;10.968;2023-05-18T03:52:53;5.50;99.90
5834;DHT22;2943;48.012;10.968;2023-05-18T03:55:20;5.50;99.90
5834;DHT22;2943;48.012;10.968;2023-05-18T03:57:50;5.50;99.90
5834;DHT22;2943;48.012;10.968;2023-05-18T04:00:18;5.50;99.90
5834;DHT22;2943;48.012;10.968;2023-05-18T04:02:45;5.50;99.90
5834;DHT22;2943;48.012;10.968;2023-05-18T04:05:16;5.50;99.90
5834;DHT22;2943;48.012;10.968;2023-05-18T04:07:43;5.50;99.90
5834;DHT22;2943;48.012;10.968;2023-05-18T04:10:11;5.50;99.90
5834;DHT22;2943;48.012;10.968;2023-05-18T04:12:39;5.50;99.90
5834;DHT22;2943;48.012;10.968;2023-05-18T04:15:08;5.60;99.90
5834;DHT22;2943;48.012;10.968;2023-05-18T04:17:38;5.50;99.90
5834;DHT22;2943;48.012;10.968;2023-05-18T04:20:08;5.60;99.90
5834;DHT22;2943;48.012;10.968;2023-05-18T04:22:42;5.60;99.90
5834;DHT22;2943;48.012;10.968;2023-05-18T04:25:11;5.60;99.90
5834;DHT22;2943;48.012;10.968;2023-05-18T04:27:38;5.60;99.90
5834;DHT22;2943;48.012;10.968;2023-05-18T04:30:08;5.60;99.90
5834;DHT22;2943;48.012;10.968;2023-05-18T04:32:36;5.60;99.90
5834;DHT22;2943;48.012;10.968;2023-05-18T04:35:04;5.60;99.90
5834;DHT22;2943;48.012;10.968;2023-05-18T04:37:32;5.60;99.90
5834;DHT22;2943;48.012;10.968;2023-05-18T04:39:59;5.60;99.90
5834;DHT22;2943;48.012;10.968;2023-05-18T04:42:26;5.60;99.90
5834;DHT22;2943;48.012;10.968;2023-05-18T04:44:53;5.60;99.90
5834;DHT22;2943;48.012;10.968;2023-05-18T04:47:21;5.60;99.90
5834;DHT22;2943;48.012;10.968;2023-05-18T04:49:49;5.70;99.90
5834;DHT22;2943;48.012;10.968;2023-05-18T04:52:17;5.60;99.90
5834;DHT22;2943;48.012;10.968;2023-05-18T04:54:44;5.60;99.90
5834;DHT22;2943;48.012;10.968;2023-05-18T04:57:11;5.70;99.90
5834;DHT22;2943;48.012;10.968;2023-05-18T04:59:38;5.70;99.90
5834;DHT22;2943;48.012;10.968;2023-05-18T05:02:07;5.70;99.90
5834;DHT22;2943;48.012;10.968;2023-05-18T05:04:35;5.70;99.90
5834;DHT22;2943;48.012;10.968;2023-05-18T05:07:02;5.80;99.90
5834;DHT22;2943;48.012;10.968;2023-05-18T05:09:29;5.80;99.90
5834;DHT22;2943;48.012;10.968;2023-05-18T05:11:59;5.80;99.90
5834;DHT22;2943;48.012;10.968;2023-05-18T05:14:28;5.90;99.90
5834;DHT22;2943;48.012;10.968;2023-05-18T05:16:55;5.90;99.90
5834;DHT22;2943;48.012;10.968;2023-05-18T05:19:22;6.00;99.90
5834;DHT22;2943;48.012;10.968;2023-05-18T05:21:50;6.00;99.90
5834;DHT22;2943;48.012;10.968;2023-05-18T05:24:17;6.00;99.90
5834;DHT22;2943;48.012;10.968;2023-05-18T05:26:44;6.10;99.90
5834;DHT22;2943;48.012;10.968;2023-05-18T05:29:12;6.10;99.90
5834;DHT22;2943;48.012;10.968;2023-05-18T05:31:39;6.20;99.90
5834;DHT22;2943;48.012;10.968;2023-05-18T05:34:06;6.30;99.90
5834;DHT22;2943;48.012;10.968;2023-05-18T05:36:33;6.40;99.90
5834;DHT22;2943;48.012;10.968;2023-05-18T05:39:01;6.40;99.90
5834;DHT22;2943;48.012;10.968;2023-05-18T05:41:29;6.50;99.90
5834;DHT22;2943;48.012;10.968;2023-05-18T05:43:55;6.50;99.90
5834;DHT22;2943;48.012;10.968;2023-05-18T05:46:23;6.60;99.90
5834;DHT22;2943;48.012;10.968;2023-05-18T05:48:50;6.60;99.90
5834;DHT22;2943;48.012;10.968;2023-05-18T05:51:17;6.70;99.90
5834;DHT22;2943;48.012;10.968;2023-05-18T05:53:44;6.80;99.90
5834;DHT22;2943;48.012;10.968;2023-05-18T05:56:28;6.90;99.90
5834;DHT22;2943;48.012;10.968;2023-05-18T05:58:55;7.00;99.90
5834;DHT22;2943;48.012;10.968;2023-05-18T06:01:22;7.00;99.90
5834;DHT22;2943;48.012;10.968;2023-05-18T06:03:49;7.00;99.90
5834;DHT22;2943;48.012;10.968;2023-05-18T06:06:16;7.10;99.90
5834;DHT22;2943;48.012;10.968;2023-05-18T06:08:43;7.10;99.90
5834;DHT22;2943;48.012;10.968;2023-05-18T06:11:10;7.20;99.90
5834;DHT22;2943;48.012;10.968;2023-05-18T06:13:39;7.30;99.90
5834;DHT22;2943;48.012;10.968;2023-05-18T06:16:06;7.40;99.90
5834;DHT22;2943;48.012;10.968;2023-05-18T06:18:32;7.40;99.90
5834;DHT22;2943;48.012;10.968;2023-05-18T06:20:59;7.50;99.90
5834;DHT22;2943;48.012;10.968;2023-05-18T06:23:26;7.50;99.90
5834;DHT22;2943;48.012;10.968;2023-05-18T06:25:53;7.60;99.90
5834;DHT22;2943;48.012;10.968;2023-05-18T06:28:20;7.70;99.90
5834;DHT22;2943;48.012;10.968;2023-05-18T06:30:48;7.80;99.90
5834;DHT22;2943;48.012;10.968;2023-05-18T06:33:15;7.90;99.90
5834;DHT22;2943;48.012;10.968;2023-05-18T06:35:42;8.00;99.90
5834;DHT22;2943;48.012;10.968;2023-05-18T06:38:09;8.10;99.90
5834;DHT22;2943;48.012;10.968;2023-05-18T06:40:36;8.10;99.90
5834;DHT22;2943;48.012;10.968;2023-05-18T06:43:07;8.20;99.90
5834;DHT22;2943;48.012;10.968;2023-05-18T06:45:34;8.30;99.90
5834;DHT22;2943;48.012;10.968;2023-05-18T06:48:02;8.40;99.90
5834;DHT22;2943;48.012;10.968;2023-05-18T06:50:29;8.50;99.90
5834;DHT22;2943;48.012;10.968;2023-05-18T06:52:56;8.60;99.90
5834;DHT22;2943;48.012;10.968;2023-05-18T06:55:23;8.70;99.90
5834;DHT22;2943;48.012;10.968;2023-05-18T06:57:50;8.80;99.90
5834;DHT22;2943;48.012;10.968;2023-05-18T07:00:18;8.90;99.90
5834;DHT22;2943;48.012;10.968;2023-05-18T07:02:45;9.00;99.90
5834;DHT22;2943;48.012;10.968;2023-05-18T07:05:13;9.10;99.90
5834;DHT22;2943;48.012;10.968;2023-05-18T07:07:41;9.10;99.90
5834;DHT22;2943;48.012;10.968;2023-05-18T07:10:08;9.30;99.90
5834;DHT22;2943;48.012;10.968;2023-05-18T07:12:38;9.30;99.90
5834;DHT22;2943;48.012;10.968;2023-05-18T07:15:06;9.40;99.90
5834;DHT22;2943;48.012;10.968;2023-05-18T07:17:32;9.40;99.90
5834;DHT22;2943;48.012;10.968;2023-05-18T07:19:59;9.50;99.90
5834;DHT22;2943;48.012;10.968;2023-05-18T07:22:41;9.50;99.90
5834;DHT22;2943;48.012;10.968;2023-05-18T07:25:08;9.60;99.90
5834;DHT22;2943;48.012;10.968;2023-05-18T07:27:35;9.70;99.90
5834;DHT22;2943;48.012;10.968;2023-05-18T07:30:02;9.80;99.90
5834;DHT22;2943;48.012;10.968;2023-05-18T07:32:29;9.80;99.90
5834;DHT22;2943;48.012;10.968;2023-05-18T07:34:55;9.90;99.90
5834;DHT22;2943;48.012;10.968;2023-05-18T07:37:23;10.10;99.90
5834;DHT22;2943;48.012;10.968;2023-05-18T07:39:51;10.20;99.90
5834;DHT22;2943;48.012;10.968;2023-05-18T07:42:18;10.40;99.90
5834;DHT22;2943;48.012;10.968;2023-05-18T07:44:45;10.60;99.90
5834;DHT22;2943;48.012;10.968;2023-05-18T07:47:12;10.70;99.90
5834;DHT22;2943;48.012;10.968;2023-05-18T07:49:38;10.70;99.90
5834;DHT22;2943;48.012;10.968;2023-05-18T07:52:06;10.70;99.90
5834;DHT22;2943;48.012;10.968;2023-05-18T07:54:33;10.70;99.90
5834;DHT22;2943;48.012;10.968;2023-05-18T07:57:01;10.70;99.90
5834;DHT22;2943;48.012;10.968;2023-05-18T07:59:28;10.70;99.90
5834;DHT22;2943;48.012;10.968;2023-05-18T08:01:56;10.70;99.90
5834;DHT22;2943;48.012;10.968;2023-05-18T08:04:23;10.80;99.90
5834;DHT22;2943;48.012;10.968;2023-05-18T08:06:58;10.80;99.90
5834;DHT22;2943;48.012;10.968;2023-05-18T08:09:26;10.90;99.90
5834;DHT22;2943;48.012;10.968;2023-05-18T08:11:53;11.00;99.90
5834;DHT22;2943;48.012;10.968;2023-05-18T08:14:21;11.00;99.90
5834;DHT22;2943;48.012;10.968;2023-05-18T08:16:48;11.10;99.90
5834;DHT22;2943;48.012;10.968;2023-05-18T08:19:15;11.20;99.90
5834;DHT22;2943;48.012;10.968;2023-05-18T08:21:41;11.30;99.90
5834;DHT22;2943;48.012;10.968;2023-05-18T08:24:10;11.30;99.90
5834;DHT22;2943;48.012;10.968;2023-05-18T08:26:37;11.30;99.90
5834;DHT22;2943;48.012;10.968;2023-05-18T08:29:04;11.30;99.90
5834;DHT22;2943;48.012;10.968;2023-05-18T08:31:35;11.40;99.90
5834;DHT22;2943;48.012;10.968;2023-05-18T08:34:02;11.40;99.90
5834;DHT22;2943;48.012;10.968;2023-05-18T08:36:30;11.50;99.90
5834;DHT22;2943;48.012;10.968;2023-05-18T08:38:57;11.50;99.90
5834;DHT22;2943;48.012;10.968;2023-05-18T08:41:28;11.60;99.90
5834;DHT22;2943;48.012;10.968;2023-05-18T08:44:00;11.70;99.90
5834;DHT22;2943;48.012;10.968;2023-05-18T08:46:35;11.80;99.90
5834;DHT22;2943;48.012;10.968;2023-05-18T08:49:05;11.90;99.90
5834;DHT22;2943;48.012;10.968;2023-05-18T08:51:35;12.00;99.90
5834;DHT22;2943;48.012;10.968;2023-05-18T08:54:04;12.10;99.90
5834;DHT22;2943;48.012;10.968;2023-05-18T08:56:32;12.10;99.90
5834;DHT22;2943;48.012;10.968;2023-05-18T08:59:02;12.20;99.90
5834;DHT22;2943;48.012;10.968;2023-05-18T09:01:33;12.20;99.90
5834;DHT22;2943;48.012;10.968;2023-05-18T09:04:01;12.20;99.90
5834;DHT22;2943;48.012;10.968;2023-05-18T09:06:29;12.30;99.90
5834;DHT22;2943;48.012;10.968;2023-05-18T09:09:00;12.40;99.90
5834;DHT22;2943;48.012;10.968;2023-05-18T09:11:30;12.40;99.90
5834;DHT22;2943;48.012;10.968;2023-05-18T09:13:57;12.40;99.90
5834;DHT22;2943;48.012;10.968;2023-05-18T09:16:25;12.50;99.90
5834;DHT22;2943;48.012;10.968;2023-05-18T09:18:52;12.50;99.90
5834;DHT22;2943;48.012;10.968;2023-05-18T09:21:20;12.50;99.90
5834;DHT22;2943;48.012;10.968;2023-05-18T09:23:48;12.50;99.90
5834;DHT22;2943;48.012;10.968;2023-05-18T09:26:15;12.70;99.90
5834;DHT22;2943;48.012;10.968;2023-05-18T09:28:42;12.80;99.90
5834;DHT22;2943;48.012;10.968;2023-05-18T09:31:16;12.90;99.90
5834;DHT22;2943;48.012;10.968;2023-05-18T09:33:44;13.00;99.90
5834;DHT22;2943;48.012;10.968;2023-05-18T09:36:11;13.10;99.90
5834;DHT22;2943;48.012;10.968;2023-05-18T09:38:42;13.20;99.90
5834;DHT22;2943;48.012;10.968;2023-05-18T09:41:11;13.30;99.90
5834;DHT22;2943;48.012;10.968;2023-05-18T09:43:39;13.30;99.90
5834;DHT22;2943;48.012;10.968;2023-05-18T09:46:09;13.40;99.90
5834;DHT22;2943;48.012;10.968;2023-05-18T09:48:40;13.50;99.90
5834;DHT22;2943;48.012;10.968;2023-05-18T09:51:15;13.60;99.90
5834;DHT22;2943;48.012;10.968;2023-05-18T09:53:46;13.50;99.90
5834;DHT22;2943;48.012;10.968;2023-05-18T09:56:16;13.50;99.90
5834;DHT22;2943;48.012;10.968;2023-05-18T09:58:44;13.50;99.90
5834;DHT22;2943;48.012;10.968;2023-05-18T10:01:11;13.30;99.90
5834;DHT22;2943;48.012;10.968;2023-05-18T10:03:38;13.30;99.90
5834;DHT22;2943;48.012;10.968;2023-05-18T10:06:06;13.20;99.90
5834;DHT22;2943;48.012;10.968;2023-05-18T10:08:34;13.10;99.90
5834;DHT22;2943;48.012;10.968;2023-05-18T10:11:03;13.00;99.90
5834;DHT22;2943;48.012;10.968;2023-05-18T10:13:31;12.90;99.90
5834;DHT22;2943;48.012;10.968;2023-05-18T10:16:00;12.90;99.90
5834;DHT22;2943;48.012;10.968;2023-05-18T10:18:28;13.00;99.90
5834;DHT22;2943;48.012;10.968;2023-05-18T10:20:58;12.90;99.90
5834;DHT22;2943;48.012;10.968;2023-05-18T10:23:28;12.90;99.90
5834;DHT22;2943;48.012;10.968;2023-05-18T10:26:06;12.90;99.90
5834;DHT22;2943;48.012;10.968;2023-05-18T10:28:37;13.00;99.90
5834;DHT22;2943;48.012;10.968;2023-05-18T10:31:07;13.00;99.90
5834;DHT22;2943;48.012;10.968;2023-05-18T10:33:35;13.00;99.90
5834;DHT22;2943;48.012;10.968;2023-05-18T10:36:04;13.00;99.90
5834;DHT22;2943;48.012;10.968;2023-05-18T10:38:32;12.90;99.90
5834;DHT22;2943;48.012;10.968;2023-05-18T10:41:00;12.90;99.90
5834;DHT22;2943;48.012;10.968;2023-05-18T10:43:28;12.90;99.90
5834;DHT22;2943;48.012;10.968;2023-05-18T10:45:56;12.90;99.90
5834;DHT22;2943;48.012;10.968;2023-05-18T10:48:24;12.90;99.90
5834;DHT22;2943;48.012;10.968;2023-05-18T10:50:53;12.90;99.90
5834;DHT22;2943;48.012;10.968;2023-05-18T10:53:21;13.00;99.90
5834;DHT22;2943;48.012;10.968;2023-05-18T10:55:50;13.00;99.90
5834;DHT22;2943;48.012;10.968;2023-05-18T10:58:19;13.10;99.90
5834;DHT22;2943;48.012;10.968;2023-05-18T11:00:49;13.00;99.90
5834;DHT22;2943;48.012;10.968;2023-05-18T11:03:17;13.10;99.90
5834;DHT22;2943;48.012;10.968;2023-05-18T11:05:48;13.00;99.90
5834;DHT22;2943;48.012;10.968;2023-05-18T11:08:23;13.00;99.90
5834;DHT22;2943;48.012;10.968;2023-05-18T11:10:59;13.00;99.90
5834;DHT22;2943;48.012;10.968;2023-05-18T11:13:28;13.00;99.90
5834;DHT22;2943;48.012;10.968;2023-05-18T11:16:04;13.00;99.90
5834;DHT22;2943;48.012;10.968;2023-05-18T11:18:42;12.90;99.90
5834;DHT22;2943;48.012;10.968;2023-05-18T11:21:20;13.00;99.90
5834;DHT22;2943;48.012;10.968;2023-05-18T11:24:12;13.00;99.90
5834;DHT22;2943;48.012;10.968;2023-05-18T11:26:40;13.10;99.90
5834;DHT22;2943;48.012;10.968;2023-05-18T11:29:15;13.00;99.90
5834;DHT22;2943;48.012;10.968;2023-05-18T11:31:44;13.00;99.90
5834;DHT22;2943;48.012;10.968;2023-05-18T11:34:34;13.00;99.90
5834;DHT22;2943;48.012;10.968;2023-05-18T11:37:01;13.10;99.90
5834;DHT22;2943;48.012;10.968;2023-05-18T11:39:28;13.20;99.90
5834;DHT22;2943;48.012;10.968;2023-05-18T11:41:58;13.20;99.90
5834;DHT22;2943;48.012;10.968;2023-05-18T11:44:27;13.20;99.90
5834;DHT22;2943;48.012;10.968;2023-05-18T11:47:07;13.20;99.90
5834;DHT22;2943;48.012;10.968;2023-05-18T11:49:36;13.30;99.90
5834;DHT22;2943;48.012;10.968;2023-05-18T11:52:06;13.30;99.90
5834;DHT22;2943;48.012;10.968;2023-05-18T11:54:48;13.40;99.90
5834;DHT22;2943;48.012;10.968;2023-05-18T11:57:16;13.50;99.90
5834;DHT22;2943;48.012;10.968;2023-05-18T11:59:44;13.40;99.90
5834;DHT22;2943;48.012;10.968;2023-05-18T12:02:18;13.50;99.90
5834;DHT22;2943;48.012;10.968;2023-05-18T12:04:46;13.50;99.90
5834;DHT22;2943;48.012;10.968;2023-05-18T12:07:16;13.60;99.90
5834;DHT22;2943;48.012;10.968;2023-05-18T12:09:44;13.70;99.90
5834;DHT22;2943;48.012;10.968;2023-05-18T12:12:13;13.80;99.90
5834;DHT22;2943;48.012;10.968;2023-05-18T12:14:42;13.90;99.90
5834;DHT22;2943;48.012;10.968;2023-05-18T12:17:09;14.00;99.90
5834;DHT22;2943;48.012;10.968;2023-05-18T12:19:46;14.00;99.90
5834;DHT22;2943;48.012;10.968;2023-05-18T12:22:14;14.10;99.90
5834;DHT22;2943;48.012;10.968;2023-05-18T12:24:42;14.10;99.90
5834;DHT22;2943;48.012;10.968;2023-05-18T12:27:10;14.00;99.90
5834;DHT22;2943;48.012;10.968;2023-05-18T12:29:38;14.00;99.90
5834;DHT22;2943;48.012;10.968;2023-05-18T12:32:07;14.00;99.90
5834;DHT22;2943;48.012;10.968;2023-05-18T12:34:35;13.80;99.90
5834;DHT22;2943;48.012;10.968;2023-05-18T12:37:05;13.70;99.90
5834;DHT22;2943;48.012;10.968;2023-05-18T12:39:31;13.70;99.90
5834;DHT22;2943;48.012;10.968;2023-05-18T12:42:12;13.70;99.90
5834;DHT22;2943;48.012;10.968;2023-05-18T12:44:40;13.80;99.90
5834;DHT22;2943;48.012;10.968;2023-05-18T12:47:09;13.70;99.90
5834;DHT22;2943;48.012;10.968;2023-05-18T12:49:36;13.70;99.90
5834;DHT22;2943;48.012;10.968;2023-05-18T12:52:13;13.70;99.90
5834;DHT22;2943;48.012;10.968;2023-05-18T12:54:50;13.60;99.90
5834;DHT22;2943;48.012;10.968;2023-05-18T12:57:20;13.60;99.90
5834;DHT22;2943;48.012;10.968;2023-05-18T12:59:50;13.70;99.90
5834;DHT22;2943;48.012;10.968;2023-05-18T13:02:29;13.80;99.90
5834;DHT22;2943;48.012;10.968;2023-05-18T13:05:04;13.90;99.90
5834;DHT22;2943;48.012;10.968;2023-05-18T13:07:36;13.90;99.90
5834;DHT22;2943;48.012;10.968;2023-05-18T13:10:18;13.90;99.90
5834;DHT22;2943;48.012;10.968;2023-05-18T13:12:46;14.10;99.90
5834;DHT22;2943;48.012;10.968;2023-05-18T13:15:15;14.20;99.90
5834;DHT22;2943;48.012;10.968;2023-05-18T13:17:54;14.30;99.90
5834;DHT22;2943;48.012;10.968;2023-05-18T13:20:22;14.40;99.90
5834;DHT22;2943;48.012;10.968;2023-05-18T13:22:51;14.60;99.90
5834;DHT22;2943;48.012;10.968;2023-05-18T13:25:20;14.70;99.90
5834;DHT22;2943;48.012;10.968;2023-05-18T13:27:47;14.70;99.90
5834;DHT22;2943;48.012;10.968;2023-05-18T13:30:15;14.60;99.90
5834;DHT22;2943;48.012;10.968;2023-05-18T13:32:42;14.60;99.90
5834;DHT22;2943;48.012;10.968;2023-05-18T13:35:09;14.80;99.90
5834;DHT22;2943;48.012;10.968;2023-05-18T13:37:36;15.00;99.90
5834;DHT22;2943;48.012;10.968;2023-05-18T13:40:19;15.30;99.90
5834;DHT22;2943;48.012;10.968;2023-05-18T13:42:48;15.50;99.90
5834;DHT22;2943;48.012;10.968;2023-05-18T13:45:15;15.50;99.90
5834;DHT22;2943;48.012;10.968;2023-05-18T13:47:42;15.50;99.90
5834;DHT22;2943;48.012;10.968;2023-05-18T13:50:15;15.60;99.90
5834;DHT22;2943;48.012;10.968;2023-05-18T13:52:42;15.50;99.90
5834;DHT22;2943;48.012;10.968;2023-05-18T13:55:09;15.30;99.90
5834;DHT22;2943;48.012;10.968;2023-05-18T13:57:37;15.30;99.90
5834;DHT22;2943;48.012;10.968;2023-05-18T14:00:05;15.30;99.90
5834;DHT22;2943;48.012;10.968;2023-05-18T14:02:35;15.30;99.90
5834;DHT22;2943;48.012;10.968;2023-05-18T14:05:03;15.20;99.90
5834;DHT22;2943;48.012;10.968;2023-05-18T14:07:33;15.20;99.90
5834;DHT22;2943;48.012;10.968;2023-05-18T14:10:00;15.20;99.90
5834;DHT22;2943;48.012;10.968;2023-05-18T14:12:27;15.10;99.90
5834;DHT22;2943;48.012;10.968;2023-05-18T14:14:55;15.10;99.90
5834;DHT22;2943;48.012;10.968;2023-05-18T14:17:21;15.10;99.90
5834;DHT22;2943;48.012;10.968;2023-05-18T14:19:48;15.10;99.90
5834;DHT22;2943;48.012;10.968;2023-05-18T14:22:15;15.00;99.90
5834;DHT22;2943;48.012;10.968;2023-05-18T14:24:43;14.90;99.90
5834;DHT22;2943;48.012;10.968;2023-05-18T14:27:10;14.80;99.90
5834;DHT22;2943;48.012;10.968;2023-05-18T14:29:37;14.70;99.90
5834;DHT22;2943;48.012;10.968;2023-05-18T14:32:06;14.70;99.90
5834;DHT22;2943;48.012;10.968;2023-05-18T14:34:33;14.60;99.90
5834;DHT22;2943;48.012;10.968;2023-05-18T14:37:00;14.50;99.90
5834;DHT22;2943;48.012;10.968;2023-05-18T14:39:26;14.50;99.90
5834;DHT22;2943;48.012;10.968;2023-05-18T14:41:53;14.50;99.90
5834;DHT22;2943;48.012;10.968;2023-05-18T14:44:20;14.40;99.90
5834;DHT22;2943;48.012;10.968;2023-05-18T14:46:47;14.40;99.90
5834;DHT22;2943;48.012;10.968;2023-05-18T14:49:15;14.40;99.90
5834;DHT22;2943;48.012;10.968;2023-05-18T14:51:42;14.50;99.90
5834;DHT22;2943;48.012;10.968;2023-05-18T14:54:09;14.50;99.90
5834;DHT22;2943;48.012;10.968;2023-05-18T14:56:36;14.50;99.90
5834;DHT22;2943;48.012;10.968;2023-05-18T14:59:02;14.50;99.90
5834;DHT22;2943;48.012;10.968;2023-05-18T15:01:29;14.50;99.90
5834;DHT22;2943;48.012;10.968;2023-05-18T15:03:56;14.50;99.90
5834;DHT22;2943;48.012;10.968;2023-05-18T15:06:25;14.40;99.90
5834;DHT22;2943;48.012;10.968;2023-05-18T15:08:51;14.40;99.90
5834;DHT22;2943;48.012;10.968;2023-05-18T15:11:18;14.30;99.90
5834;DHT22;2943;48.012;10.968;2023-05-18T15:13:47;14.30;99.90
5834;DHT22;2943;48.012;10.968;2023-05-18T15:16:14;14.30;99.90
5834;DHT22;2943;48.012;10.968;2023-05-18T15:18:43;14.30;99.90
5834;DHT22;2943;48.012;10.968;2023-05-18T15:21:10;14.30;99.90
5834;DHT22;2943;48.012;10.968;2023-05-18T15:23:38;14.30;99.90
5834;DHT22;2943;48.012;10.968;2023-05-18T15:26:05;14.30;99.90
5834;DHT22;2943;48.012;10.968;2023-05-18T15:28:32;14.30;99.90
5834;DHT22;2943;48.012;10.968;2023-05-18T15:30:59;14.20;99.90
5834;DHT22;2943;48.012;10.968;2023-05-18T15:33:25;14.20;99.90
5834;DHT22;2943;48.012;10.968;2023-05-18T15:35:52;14.20;99.90
5834;DHT22;2943;48.012;10.968;2023-05-18T15:38:19;14.20;99.90
5834;DHT22;2943;48.012;10.968;2023-05-18T15:40:47;14.20;99.90
5834;DHT22;2943;48.012;10.968;2023-05-18T15:43:14;14.20;99.90
5834;DHT22;2943;48.012;10.968;2023-05-18T15:45:41;14.20;99.90
5834;DHT22;2943;48.012;10.968;2023-05-18T15:48:08;14.20;99.90
5834;DHT22;2943;48.012;10.968;2023-05-18T15:50:35;14.30;99.90
5834;DHT22;2943;48.012;10.968;2023-05-18T15:53:04;14.20;99.90
5834;DHT22;2943;48.012;10.968;2023-05-18T15:55:40;14.20;99.90
5834;DHT22;2943;48.012;10.968;2023-05-18T15:58:08;14.30;99.90
5834;DHT22;2943;48.012;10.968;2023-05-18T16:00:35;14.20;99.90
5834;DHT22;2943;48.012;10.968;2023-05-18T16:03:01;14.20;99.90